sensor_id;sensor_type;location;lat;lon;timestamp;P1;durP1;ratioP1;P2;durP2;ratioP2
49109;SDS011;34921;52.320;16.142;2022-12-07T00:01:50;12.83;;;8.20;;
49109;SDS011;34921;52.320;16.142;2022-12-07T00:04:17;14.45;;;8.78;;
49109;SDS011;34921;52.320;16.142;2022-12-07T00:06:45;14.90;;;8.35;;
49109;SDS011;34921;52.320;16.142;2022-12-07T00:09:14;14.93;;;8.33;;
49109;SDS011;34921;52.320;16.142;2022-12-07T00:11:42;13.43;;;8.43;;
49109;SDS011;34921;52.320;16.142;2022-12-07T00:14:12;13.47;;;7.77;;
49109;SDS011;34921;52.320;16.142;2022-12-07T00:16:40;14.35;;;8.00;;
49109;SDS011;34921;52.320;16.142;2022-12-07T00:19:09;13.20;;;7.35;;
49109;SDS011;34921;52.320;16.142;2022-12-07T00:21:37;13.28;;;8.23;;
49109;SDS011;34921;52.320;16.142;2022-12-07T00:24:04;12.55;;;7.80;;
49109;SDS011;34921;52.320;16.142;2022-12-07T00:26:33;13.32;;;7.42;;
49109;SDS011;34921;52.320;16.142;2022-12-07T00:29:03;12.35;;;7.75;;
49109;SDS011;34921;52.320;16.142;2022-12-07T00:31:35;13.75;;;7.80;;
49109;SDS011;34921;52.320;16.142;2022-12-07T00:34:05;13.48;;;8.75;;
49109;SDS011;34921;52.320;16.142;2022-12-07T00:36:33;14.63;;;8.60;;
49109;SDS011;34921;52.320;16.142;2022-12-07T00:39:00;11.28;;;7.33;;
49109;SDS011;34921;52.320;16.142;2022-12-07T00:41:27;14.43;;;8.65;;
49109;SDS011;34921;52.320;16.142;2022-12-07T00:43:55;13.43;;;8.30;;
49109;SDS011;34921;52.320;16.142;2022-12-07T00:46:22;13.88;;;8.20;;
49109;SDS011;34921;52.320;16.142;2022-12-07T00:48:50;12.78;;;8.23;;
49109;SDS011;34921;52.320;16.142;2022-12-07T00:51:19;12.53;;;8.05;;
49109;SDS011;34921;52.320;16.142;2022-12-07T00:53:47;13.03;;;8.28;;
49109;SDS011;34921;52.320;16.142;2022-12-07T00:56:15;12.58;;;7.83;;
49109;SDS011;34921;52.320;16.142;2022-12-07T00:58:44;12.30;;;7.97;;
49109;SDS011;34921;52.320;16.142;2022-12-07T01:01:19;11.38;;;7.22;;
49109;SDS011;34921;52.320;16.142;2022-12-07T01:03:46;12.40;;;7.83;;
49109;SDS011;34921;52.320;16.142;2022-12-07T01:06:16;12.98;;;6.97;;
49109;SDS011;34921;52.320;16.142;2022-12-07T01:08:44;12.10;;;7.97;;
49109;SDS011;34921;52.320;16.142;2022-12-07T01:11:15;10.95;;;7.37;;
49109;SDS011;34921;52.320;16.142;2022-12-07T01:13:44;13.72;;;8.00;;
49109;SDS011;34921;52.320;16.142;2022-12-07T01:16:12;11.93;;;8.15;;
49109;SDS011;34921;52.320;16.142;2022-12-07T01:18:41;12.10;;;7.80;;
49109;SDS011;34921;52.320;16.142;2022-12-07T01:21:12;12.95;;;8.60;;
49109;SDS011;34921;52.320;16.142;2022-12-07T01:23:43;13.35;;;8.30;;
49109;SDS011;34921;52.320;16.142;2022-12-07T01:26:11;13.53;;;7.77;;
49109;SDS011;34921;52.320;16.142;2022-12-07T01:28:39;14.60;;;8.90;;
49109;SDS011;34921;52.320;16.142;2022-12-07T01:31:07;12.47;;;7.63;;
49109;SDS011;34921;52.320;16.142;2022-12-07T01:33:41;11.97;;;7.47;;
49109;SDS011;34921;52.320;16.142;2022-12-07T01:38:39;14.43;;;9.25;;
49109;SDS011;34921;52.320;16.142;2022-12-07T01:41:06;14.28;;;8.88;;
49109;SDS011;34921;52.320;16.142;2022-12-07T01:43:34;15.80;;;9.00;;
49109;SDS011;34921;52.320;16.142;2022-12-07T01:46:01;11.45;;;8.13;;
49109;SDS011;34921;52.320;16.142;2022-12-07T01:51:00;15.08;;;9.03;;
49109;SDS011;34921;52.320;16.142;2022-12-07T01:55:55;10.60;;;7.90;;
49109;SDS011;34921;52.320;16.142;2022-12-07T01:58:23;14.20;;;9.20;;
49109;SDS011;34921;52.320;16.142;2022-12-07T02:00:50;15.93;;;9.13;;
49109;SDS011;34921;52.320;16.142;2022-12-07T02:03:22;15.85;;;10.10;;
49109;SDS011;34921;52.320;16.142;2022-12-07T02:05:51;16.32;;;9.80;;
49109;SDS011;34921;52.320;16.142;2022-12-07T02:08:19;15.48;;;10.15;;
49109;SDS011;34921;52.320;16.142;2022-12-07T02:10:46;17.32;;;10.18;;
49109;SDS011;34921;52.320;16.142;2022-12-07T02:13:21;35.15;;;13.60;;
49109;SDS011;34921;52.320;16.142;2022-12-07T02:21:07;15.05;;;10.18;;
49109;SDS011;34921;52.320;16.142;2022-12-07T02:29:34;17.12;;;9.63;;
49109;SDS011;34921;52.320;16.142;2022-12-07T02:32:11;17.60;;;10.03;;
49109;SDS011;34921;52.320;16.142;2022-12-07T02:34:44;17.00;;;10.63;;
49109;SDS011;34921;52.320;16.142;2022-12-07T02:37:46;13.33;;;9.17;;
49109;SDS011;34921;52.320;16.142;2022-12-07T02:40:20;12.68;;;8.00;;
49109;SDS011;34921;52.320;16.142;2022-12-07T02:42:51;13.32;;;8.65;;
49109;SDS011;34921;52.320;16.142;2022-12-07T02:45:22;17.77;;;9.70;;
49109;SDS011;34921;52.320;16.142;2022-12-07T02:47:51;17.90;;;10.40;;
49109;SDS011;34921;52.320;16.142;2022-12-07T02:50:20;16.50;;;9.73;;
49109;SDS011;34921;52.320;16.142;2022-12-07T02:52:47;16.05;;;9.58;;
49109;SDS011;34921;52.320;16.142;2022-12-07T02:55:15;15.32;;;9.20;;
49109;SDS011;34921;52.320;16.142;2022-12-07T03:00:34;15.13;;;9.13;;
49109;SDS011;34921;52.320;16.142;2022-12-07T03:03:12;13.83;;;8.73;;
49109;SDS011;34921;52.320;16.142;2022-12-07T03:05:47;14.28;;;9.18;;
49109;SDS011;34921;52.320;16.142;2022-12-07T03:08:39;15.67;;;9.73;;
49109;SDS011;34921;52.320;16.142;2022-12-07T03:11:32;14.78;;;9.28;;
49109;SDS011;34921;52.320;16.142;2022-12-07T03:14:30;15.35;;;9.00;;
49109;SDS011;34921;52.320;16.142;2022-12-07T03:17:43;12.33;;;7.97;;
49109;SDS011;34921;52.320;16.142;2022-12-07T03:19:51;10.63;;;7.22;;
49109;SDS011;34921;52.320;16.142;2022-12-07T03:22:22;12.10;;;8.60;;
49109;SDS011;34921;52.320;16.142;2022-12-07T03:24:52;12.93;;;9.00;;
49109;SDS011;34921;52.320;16.142;2022-12-07T03:27:23;13.58;;;9.15;;
49109;SDS011;34921;52.320;16.142;2022-12-07T03:29:54;12.47;;;8.55;;
49109;SDS011;34921;52.320;16.142;2022-12-07T03:37:33;13.25;;;8.90;;
49109;SDS011;34921;52.320;16.142;2022-12-07T03:42:49;15.63;;;9.55;;
49109;SDS011;34921;52.320;16.142;2022-12-07T03:45:16;13.30;;;9.03;;
49109;SDS011;34921;52.320;16.142;2022-12-07T03:50:38;20.82;;;15.15;;
49109;SDS011;34921;52.320;16.142;2022-12-07T03:55:58;16.65;;;12.10;;
49109;SDS011;34921;52.320;16.142;2022-12-07T03:58:26;16.45;;;11.08;;
49109;SDS011;34921;52.320;16.142;2022-12-07T04:00:53;17.15;;;11.12;;
49109;SDS011;34921;52.320;16.142;2022-12-07T04:03:20;14.15;;;9.93;;
49109;SDS011;34921;52.320;16.142;2022-12-07T04:05:47;13.78;;;9.63;;
49109;SDS011;34921;52.320;16.142;2022-12-07T04:08:14;14.45;;;10.30;;
49109;SDS011;34921;52.320;16.142;2022-12-07T04:10:41;14.80;;;9.77;;
49109;SDS011;34921;52.320;16.142;2022-12-07T04:13:08;15.40;;;9.67;;
49109;SDS011;34921;52.320;16.142;2022-12-07T04:15:35;16.42;;;10.25;;
49109;SDS011;34921;52.320;16.142;2022-12-07T04:18:02;14.75;;;10.13;;
49109;SDS011;34921;52.320;16.142;2022-12-07T04:20:28;14.85;;;9.70;;
49109;SDS011;34921;52.320;16.142;2022-12-07T04:22:55;15.85;;;10.35;;
49109;SDS011;34921;52.320;16.142;2022-12-07T04:25:22;14.80;;;9.05;;
49109;SDS011;34921;52.320;16.142;2022-12-07T04:27:49;13.33;;;8.90;;
49109;SDS011;34921;52.320;16.142;2022-12-07T04:30:16;13.40;;;8.55;;
49109;SDS011;34921;52.320;16.142;2022-12-07T04:32:43;18.35;;;10.80;;
49109;SDS011;34921;52.320;16.142;2022-12-07T04:35:10;17.77;;;10.53;;
49109;SDS011;34921;52.320;16.142;2022-12-07T04:37:36;14.78;;;9.70;;
49109;SDS011;34921;52.320;16.142;2022-12-07T04:40:07;16.48;;;10.65;;
49109;SDS011;34921;52.320;16.142;2022-12-07T04:42:37;26.17;;;11.53;;
49109;SDS011;34921;52.320;16.142;2022-12-07T04:45:04;22.32;;;13.50;;
49109;SDS011;34921;52.320;16.142;2022-12-07T04:47:32;23.37;;;14.80;;
49109;SDS011;34921;52.320;16.142;2022-12-07T04:49:59;18.87;;;13.15;;
49109;SDS011;34921;52.320;16.142;2022-12-07T04:52:26;15.83;;;11.35;;
49109;SDS011;34921;52.320;16.142;2022-12-07T04:54:52;13.90;;;9.68;;
49109;SDS011;34921;52.320;16.142;2022-12-07T04:57:19;14.35;;;9.95;;
49109;SDS011;34921;52.320;16.142;2022-12-07T04:59:46;14.15;;;10.20;;
49109;SDS011;34921;52.320;16.142;2022-12-07T05:02:13;13.75;;;9.43;;
49109;SDS011;34921;52.320;16.142;2022-12-07T05:04:40;10.70;;;7.55;;
49109;SDS011;34921;52.320;16.142;2022-12-07T05:07:06;11.43;;;7.75;;
49109;SDS011;34921;52.320;16.142;2022-12-07T05:09:33;10.68;;;7.12;;
49109;SDS011;34921;52.320;16.142;2022-12-07T05:12:00;9.45;;;6.35;;
49109;SDS011;34921;52.320;16.142;2022-12-07T05:14:27;9.28;;;6.60;;
49109;SDS011;34921;52.320;16.142;2022-12-07T05:16:54;11.57;;;7.35;;
49109;SDS011;34921;52.320;16.142;2022-12-07T05:19:21;13.18;;;7.17;;
49109;SDS011;34921;52.320;16.142;2022-12-07T05:21:47;22.00;;;8.75;;
49109;SDS011;34921;52.320;16.142;2022-12-07T05:24:15;16.80;;;8.20;;
49109;SDS011;34921;52.320;16.142;2022-12-07T05:26:43;27.93;;;10.87;;
49109;SDS011;34921;52.320;16.142;2022-12-07T05:29:14;21.75;;;9.43;;
49109;SDS011;34921;52.320;16.142;2022-12-07T05:31:42;33.90;;;12.33;;
49109;SDS011;34921;52.320;16.142;2022-12-07T05:34:09;25.08;;;10.48;;
49109;SDS011;34921;52.320;16.142;2022-12-07T05:36:36;21.33;;;9.53;;
49109;SDS011;34921;52.320;16.142;2022-12-07T05:39:03;10.18;;;6.65;;
49109;SDS011;34921;52.320;16.142;2022-12-07T05:41:30;10.78;;;6.87;;
49109;SDS011;34921;52.320;16.142;2022-12-07T05:44:16;11.50;;;6.08;;
49109;SDS011;34921;52.320;16.142;2022-12-07T05:46:45;8.23;;;5.40;;
49109;SDS011;34921;52.320;16.142;2022-12-07T05:49:13;7.33;;;4.40;;
49109;SDS011;34921;52.320;16.142;2022-12-07T05:51:41;10.40;;;5.10;;
49109;SDS011;34921;52.320;16.142;2022-12-07T05:54:09;10.90;;;5.83;;
49109;SDS011;34921;52.320;16.142;2022-12-07T05:56:37;11.65;;;4.72;;
49109;SDS011;34921;52.320;16.142;2022-12-07T05:59:05;9.75;;;4.33;;
49109;SDS011;34921;52.320;16.142;2022-12-07T06:01:59;10.38;;;4.50;;
49109;SDS011;34921;52.320;16.142;2022-12-07T06:04:30;10.53;;;4.37;;
49109;SDS011;34921;52.320;16.142;2022-12-07T06:07:00;14.07;;;6.33;;
49109;SDS011;34921;52.320;16.142;2022-12-07T06:09:28;14.73;;;5.62;;
49109;SDS011;34921;52.320;16.142;2022-12-07T06:11:57;13.55;;;6.67;;
49109;SDS011;34921;52.320;16.142;2022-12-07T06:14:44;12.43;;;6.33;;
49109;SDS011;34921;52.320;16.142;2022-12-07T06:17:12;19.35;;;7.42;;
49109;SDS011;34921;52.320;16.142;2022-12-07T06:19:41;12.40;;;6.62;;
49109;SDS011;34921;52.320;16.142;2022-12-07T06:22:09;16.80;;;8.10;;
49109;SDS011;34921;52.320;16.142;2022-12-07T06:24:39;16.50;;;8.98;;
49109;SDS011;34921;52.320;16.142;2022-12-07T06:27:07;19.82;;;11.73;;
49109;SDS011;34921;52.320;16.142;2022-12-07T06:29:35;19.12;;;9.68;;
49109;SDS011;34921;52.320;16.142;2022-12-07T06:32:04;13.18;;;8.18;;
49109;SDS011;34921;52.320;16.142;2022-12-07T06:34:32;21.27;;;12.93;;
49109;SDS011;34921;52.320;16.142;2022-12-07T06:37:00;27.80;;;16.17;;
49109;SDS011;34921;52.320;16.142;2022-12-07T06:39:28;31.90;;;18.67;;
49109;SDS011;34921;52.320;16.142;2022-12-07T06:41:56;20.45;;;12.33;;
49109;SDS011;34921;52.320;16.142;2022-12-07T06:44:25;17.40;;;11.12;;
49109;SDS011;34921;52.320;16.142;2022-12-07T06:46:52;17.75;;;10.43;;
49109;SDS011;34921;52.320;16.142;2022-12-07T06:49:20;32.75;;;16.35;;
49109;SDS011;34921;52.320;16.142;2022-12-07T06:51:48;30.88;;;14.78;;
49109;SDS011;34921;52.320;16.142;2022-12-07T06:54:16;23.95;;;14.60;;
49109;SDS011;34921;52.320;16.142;2022-12-07T06:56:44;36.05;;;17.23;;
49109;SDS011;34921;52.320;16.142;2022-12-07T06:59:12;31.70;;;15.70;;
49109;SDS011;34921;52.320;16.142;2022-12-07T07:01:40;32.10;;;17.67;;
49109;SDS011;34921;52.320;16.142;2022-12-07T07:04:08;24.33;;;13.90;;
49109;SDS011;34921;52.320;16.142;2022-12-07T07:06:35;21.17;;;12.78;;
49109;SDS011;34921;52.320;16.142;2022-12-07T07:09:03;32.25;;;20.80;;
49109;SDS011;34921;52.320;16.142;2022-12-07T07:11:31;25.77;;;14.85;;
49109;SDS011;34921;52.320;16.142;2022-12-07T07:13:59;40.48;;;21.48;;
49109;SDS011;34921;52.320;16.142;2022-12-07T07:18:58;34.48;;;19.15;;
49109;SDS011;34921;52.320;16.142;2022-12-07T07:21:26;18.45;;;12.28;;
49109;SDS011;34921;52.320;16.142;2022-12-07T07:23:54;18.05;;;11.15;;
49109;SDS011;34921;52.320;16.142;2022-12-07T07:26:21;15.15;;;9.23;;
49109;SDS011;34921;52.320;16.142;2022-12-07T07:28:49;12.50;;;8.78;;
49109;SDS011;34921;52.320;16.142;2022-12-07T07:31:17;14.13;;;8.83;;
49109;SDS011;34921;52.320;16.142;2022-12-07T07:33:46;13.43;;;8.50;;
49109;SDS011;34921;52.320;16.142;2022-12-07T07:36:14;12.93;;;8.28;;
49109;SDS011;34921;52.320;16.142;2022-12-07T07:38:42;10.43;;;6.92;;
49109;SDS011;34921;52.320;16.142;2022-12-07T07:41:09;15.58;;;9.83;;
49109;SDS011;34921;52.320;16.142;2022-12-07T07:43:37;13.10;;;7.40;;
49109;SDS011;34921;52.320;16.142;2022-12-07T07:46:05;15.23;;;9.15;;
49109;SDS011;34921;52.320;16.142;2022-12-07T07:48:33;12.82;;;7.80;;
49109;SDS011;34921;52.320;16.142;2022-12-07T07:51:04;17.25;;;10.10;;
49109;SDS011;34921;52.320;16.142;2022-12-07T07:53:33;15.48;;;8.73;;
49109;SDS011;34921;52.320;16.142;2022-12-07T07:56:01;16.32;;;8.53;;
49109;SDS011;34921;52.320;16.142;2022-12-07T07:58:29;14.80;;;8.97;;
49109;SDS011;34921;52.320;16.142;2022-12-07T08:01:02;17.15;;;10.40;;
49109;SDS011;34921;52.320;16.142;2022-12-07T08:03:31;12.15;;;7.95;;
49109;SDS011;34921;52.320;16.142;2022-12-07T08:05:59;20.48;;;12.37;;
49109;SDS011;34921;52.320;16.142;2022-12-07T08:08:27;19.45;;;12.50;;
49109;SDS011;34921;52.320;16.142;2022-12-07T08:10:55;16.48;;;12.10;;
49109;SDS011;34921;52.320;16.142;2022-12-07T08:13:23;17.23;;;10.93;;
49109;SDS011;34921;52.320;16.142;2022-12-07T08:15:50;18.37;;;10.72;;
49109;SDS011;34921;52.320;16.142;2022-12-07T08:18:18;14.58;;;10.18;;
49109;SDS011;34921;52.320;16.142;2022-12-07T08:20:46;27.02;;;19.80;;
49109;SDS011;34921;52.320;16.142;2022-12-07T08:23:14;19.92;;;12.37;;
49109;SDS011;34921;52.320;16.142;2022-12-07T08:25:42;21.15;;;12.25;;
49109;SDS011;34921;52.320;16.142;2022-12-07T08:28:10;17.85;;;11.25;;
49109;SDS011;34921;52.320;16.142;2022-12-07T08:30:38;14.30;;;9.95;;
49109;SDS011;34921;52.320;16.142;2022-12-07T08:33:06;17.15;;;11.05;;
49109;SDS011;34921;52.320;16.142;2022-12-07T08:35:33;18.15;;;11.43;;
49109;SDS011;34921;52.320;16.142;2022-12-07T08:38:02;18.52;;;11.50;;
49109;SDS011;34921;52.320;16.142;2022-12-07T08:40:30;17.25;;;12.15;;
49109;SDS011;34921;52.320;16.142;2022-12-07T08:42:58;14.78;;;9.18;;
49109;SDS011;34921;52.320;16.142;2022-12-07T08:45:26;16.42;;;11.35;;
49109;SDS011;34921;52.320;16.142;2022-12-07T08:47:57;17.10;;;10.93;;
49109;SDS011;34921;52.320;16.142;2022-12-07T08:50:29;20.70;;;11.10;;
49109;SDS011;34921;52.320;16.142;2022-12-07T08:52:59;14.77;;;10.10;;
49109;SDS011;34921;52.320;16.142;2022-12-07T08:55:27;16.50;;;11.12;;
49109;SDS011;34921;52.320;16.142;2022-12-07T08:57:59;16.48;;;10.45;;
49109;SDS011;34921;52.320;16.142;2022-12-07T09:00:28;16.77;;;10.43;;
49109;SDS011;34921;52.320;16.142;2022-12-07T09:02:55;22.32;;;12.50;;
49109;SDS011;34921;52.320;16.142;2022-12-07T09:05:23;19.98;;;11.45;;
49109;SDS011;34921;52.320;16.142;2022-12-07T09:07:52;26.10;;;13.93;;
49109;SDS011;34921;52.320;16.142;2022-12-07T09:10:23;15.58;;;9.53;;
49109;SDS011;34921;52.320;16.142;2022-12-07T09:12:50;15.95;;;10.03;;
49109;SDS011;34921;52.320;16.142;2022-12-07T09:15:18;16.93;;;11.12;;
49109;SDS011;34921;52.320;16.142;2022-12-07T09:17:46;19.42;;;12.20;;
49109;SDS011;34921;52.320;16.142;2022-12-07T09:20:14;16.90;;;11.22;;
49109;SDS011;34921;52.320;16.142;2022-12-07T09:22:42;19.62;;;12.18;;
49109;SDS011;34921;52.320;16.142;2022-12-07T09:25:10;19.20;;;12.00;;
49109;SDS011;34921;52.320;16.142;2022-12-07T09:27:38;17.95;;;11.03;;
49109;SDS011;34921;52.320;16.142;2022-12-07T09:30:06;17.12;;;12.33;;
49109;SDS011;34921;52.320;16.142;2022-12-07T09:32:34;20.40;;;13.35;;
49109;SDS011;34921;52.320;16.142;2022-12-07T09:35:02;20.20;;;13.13;;
49109;SDS011;34921;52.320;16.142;2022-12-07T09:37:30;22.95;;;14.20;;
49109;SDS011;34921;52.320;16.142;2022-12-07T09:40:02;19.62;;;12.82;;
49109;SDS011;34921;52.320;16.142;2022-12-07T09:42:39;20.25;;;11.60;;
49109;SDS011;34921;52.320;16.142;2022-12-07T09:45:12;18.62;;;11.73;;
49109;SDS011;34921;52.320;16.142;2022-12-07T09:47:42;17.00;;;11.20;;
49109;SDS011;34921;52.320;16.142;2022-12-07T09:50:15;20.00;;;12.30;;
49109;SDS011;34921;52.320;16.142;2022-12-07T09:52:44;20.17;;;12.03;;
49109;SDS011;34921;52.320;16.142;2022-12-07T09:57:44;20.52;;;11.97;;
49109;SDS011;34921;52.320;16.142;2022-12-07T10:00:16;20.83;;;12.53;;
49109;SDS011;34921;52.320;16.142;2022-12-07T10:02:55;19.17;;;12.05;;
49109;SDS011;34921;52.320;16.142;2022-12-07T10:05:35;17.98;;;11.55;;
49109;SDS011;34921;52.320;16.142;2022-12-07T10:08:11;20.88;;;13.93;;
49109;SDS011;34921;52.320;16.142;2022-12-07T10:10:40;18.48;;;12.23;;
49109;SDS011;34921;52.320;16.142;2022-12-07T10:13:09;18.30;;;12.05;;
49109;SDS011;34921;52.320;16.142;2022-12-07T10:18:16;19.80;;;11.88;;
49109;SDS011;34921;52.320;16.142;2022-12-07T10:20:49;16.85;;;10.80;;
49109;SDS011;34921;52.320;16.142;2022-12-07T10:26:38;18.48;;;11.60;;
49109;SDS011;34921;52.320;16.142;2022-12-07T10:29:20;15.63;;;11.10;;
49109;SDS011;34921;52.320;16.142;2022-12-07T10:31:59;23.30;;;13.03;;
49109;SDS011;34921;52.320;16.142;2022-12-07T10:39:45;20.05;;;12.20;;
49109;SDS011;34921;52.320;16.142;2022-12-07T10:45:15;21.97;;;13.18;;
49109;SDS011;34921;52.320;16.142;2022-12-07T10:47:49;18.40;;;12.17;;
49109;SDS011;34921;52.320;16.142;2022-12-07T11:01:26;19.15;;;12.00;;
49109;SDS011;34921;52.320;16.142;2022-12-07T11:06:52;22.13;;;13.78;;
49109;SDS011;34921;52.320;16.142;2022-12-07T11:20:53;19.07;;;12.85;;
49109;SDS011;34921;52.320;16.142;2022-12-07T11:31:36;24.87;;;14.97;;
49109;SDS011;34921;52.320;16.142;2022-12-07T11:34:18;19.03;;;12.10;;
49109;SDS011;34921;52.320;16.142;2022-12-07T11:37:09;21.90;;;13.32;;
49109;SDS011;34921;52.320;16.142;2022-12-07T11:39:58;14.98;;;10.15;;
49109;SDS011;34921;52.320;16.142;2022-12-07T11:42:52;18.60;;;11.25;;
49109;SDS011;34921;52.320;16.142;2022-12-07T11:45:27;20.60;;;12.10;;
49109;SDS011;34921;52.320;16.142;2022-12-07T11:50:59;23.87;;;13.18;;
49109;SDS011;34921;52.320;16.142;2022-12-07T11:56:03;26.40;;;14.53;;
49109;SDS011;34921;52.320;16.142;2022-12-07T12:12:05;107.63;;;93.35;;
49109;SDS011;34921;52.320;16.142;2022-12-07T12:20:15;53.87;;;31.45;;
49109;SDS011;34921;52.320;16.142;2022-12-07T12:23:14;50.77;;;30.63;;
49109;SDS011;34921;52.320;16.142;2022-12-07T12:25:55;99.42;;;43.00;;
49109;SDS011;34921;52.320;16.142;2022-12-07T12:33:43;105.55;;;43.95;;
49109;SDS011;34921;52.320;16.142;2022-12-07T12:46:52;26.52;;;12.60;;
49109;SDS011;34921;52.320;16.142;2022-12-07T12:49:42;14.03;;;6.50;;
49109;SDS011;34921;52.320;16.142;2022-12-07T12:57:15;24.27;;;11.83;;
49109;SDS011;34921;52.320;16.142;2022-12-07T13:02:20;23.85;;;9.95;;
49109;SDS011;34921;52.320;16.142;2022-12-07T13:28:49;10.72;;;5.37;;
49109;SDS011;34921;52.320;16.142;2022-12-07T13:37:18;9.90;;;6.72;;
49109;SDS011;34921;52.320;16.142;2022-12-07T13:39:52;8.13;;;4.75;;
49109;SDS011;34921;52.320;16.142;2022-12-07T13:42:28;6.37;;;4.12;;
49109;SDS011;34921;52.320;16.142;2022-12-07T13:44:57;9.90;;;4.67;;
49109;SDS011;34921;52.320;16.142;2022-12-07T13:47:43;5.83;;;3.70;;
49109;SDS011;34921;52.320;16.142;2022-12-07T13:50:29;7.33;;;4.20;;
49109;SDS011;34921;52.320;16.142;2022-12-07T13:52:59;7.37;;;5.00;;
49109;SDS011;34921;52.320;16.142;2022-12-07T13:55:28;11.18;;;6.30;;
49109;SDS011;34921;52.320;16.142;2022-12-07T13:57:57;8.47;;;4.47;;
49109;SDS011;34921;52.320;16.142;2022-12-07T14:00:26;6.47;;;4.05;;
49109;SDS011;34921;52.320;16.142;2022-12-07T14:02:56;7.20;;;3.58;;
49109;SDS011;34921;52.320;16.142;2022-12-07T14:10:31;8.05;;;5.00;;
49109;SDS011;34921;52.320;16.142;2022-12-07T14:13:18;13.72;;;8.48;;
49109;SDS011;34921;52.320;16.142;2022-12-07T14:15:50;16.20;;;9.35;;
49109;SDS011;34921;52.320;16.142;2022-12-07T14:23:37;20.90;;;9.55;;
49109;SDS011;34921;52.320;16.142;2022-12-07T14:26:13;24.57;;;12.88;;
49109;SDS011;34921;52.320;16.142;2022-12-07T14:28:43;41.17;;;23.63;;
49109;SDS011;34921;52.320;16.142;2022-12-07T14:31:18;57.88;;;29.72;;
49109;SDS011;34921;52.320;16.142;2022-12-07T14:33:49;95.25;;;43.92;;
49109;SDS011;34921;52.320;16.142;2022-12-07T14:36:17;98.07;;;44.40;;
49109;SDS011;34921;52.320;16.142;2022-12-07T14:38:45;178.45;;;93.17;;
49109;SDS011;34921;52.320;16.142;2022-12-07T14:41:14;155.37;;;74.40;;
49109;SDS011;34921;52.320;16.142;2022-12-07T14:44:07;98.35;;;49.20;;
49109;SDS011;34921;52.320;16.142;2022-12-07T14:46:39;72.55;;;42.20;;
49109;SDS011;34921;52.320;16.142;2022-12-07T14:49:06;59.03;;;33.30;;
49109;SDS011;34921;52.320;16.142;2022-12-07T14:51:36;56.42;;;28.47;;
49109;SDS011;34921;52.320;16.142;2022-12-07T14:54:06;52.33;;;26.80;;
49109;SDS011;34921;52.320;16.142;2022-12-07T14:56:46;55.92;;;26.77;;
49109;SDS011;34921;52.320;16.142;2022-12-07T14:59:18;42.53;;;21.87;;
49109;SDS011;34921;52.320;16.142;2022-12-07T15:01:46;42.45;;;23.90;;
49109;SDS011;34921;52.320;16.142;2022-12-07T15:04:14;46.83;;;22.40;;
49109;SDS011;34921;52.320;16.142;2022-12-07T15:06:48;29.67;;;16.05;;
49109;SDS011;34921;52.320;16.142;2022-12-07T15:09:24;61.90;;;30.55;;
49109;SDS011;34921;52.320;16.142;2022-12-07T15:11:52;68.52;;;32.93;;
49109;SDS011;34921;52.320;16.142;2022-12-07T15:14:20;59.53;;;25.23;;
49109;SDS011;34921;52.320;16.142;2022-12-07T15:16:51;81.60;;;34.45;;
49109;SDS011;34921;52.320;16.142;2022-12-07T15:19:20;40.35;;;18.55;;
49109;SDS011;34921;52.320;16.142;2022-12-07T15:21:51;32.60;;;15.43;;
49109;SDS011;34921;52.320;16.142;2022-12-07T15:24:20;31.27;;;15.43;;
49109;SDS011;34921;52.320;16.142;2022-12-07T15:26:49;33.18;;;16.40;;
49109;SDS011;34921;52.320;16.142;2022-12-07T15:29:17;106.52;;;49.45;;
49109;SDS011;34921;52.320;16.142;2022-12-07T15:31:45;321.35;;;130.30;;
49109;SDS011;34921;52.320;16.142;2022-12-07T15:34:16;247.20;;;94.72;;
49109;SDS011;34921;52.320;16.142;2022-12-07T15:36:44;380.18;;;140.65;;
49109;SDS011;34921;52.320;16.142;2022-12-07T15:39:12;382.75;;;156.57;;
49109;SDS011;34921;52.320;16.142;2022-12-07T15:41:41;346.18;;;137.28;;
49109;SDS011;34921;52.320;16.142;2022-12-07T15:44:13;433.12;;;176.20;;
49109;SDS011;34921;52.320;16.142;2022-12-07T15:47:00;153.80;;;67.37;;
49109;SDS011;34921;52.320;16.142;2022-12-07T15:49:28;148.20;;;63.28;;
49109;SDS011;34921;52.320;16.142;2022-12-07T15:51:57;283.90;;;122.40;;
49109;SDS011;34921;52.320;16.142;2022-12-07T15:54:25;162.47;;;80.40;;
49109;SDS011;34921;52.320;16.142;2022-12-07T15:56:55;108.00;;;55.30;;
49109;SDS011;34921;52.320;16.142;2022-12-07T15:59:25;164.65;;;65.15;;
49109;SDS011;34921;52.320;16.142;2022-12-07T16:01:54;428.08;;;138.77;;
49109;SDS011;34921;52.320;16.142;2022-12-07T16:04:23;211.30;;;75.37;;
49109;SDS011;34921;52.320;16.142;2022-12-07T16:06:51;321.40;;;122.00;;
49109;SDS011;34921;52.320;16.142;2022-12-07T16:09:19;365.95;;;141.55;;
49109;SDS011;34921;52.320;16.142;2022-12-07T16:11:47;235.50;;;93.87;;
49109;SDS011;34921;52.320;16.142;2022-12-07T16:14:15;207.47;;;92.53;;
49109;SDS011;34921;52.320;16.142;2022-12-07T16:16:43;144.72;;;66.02;;
49109;SDS011;34921;52.320;16.142;2022-12-07T16:19:11;92.10;;;43.35;;
49109;SDS011;34921;52.320;16.142;2022-12-07T16:21:39;56.08;;;29.07;;
49109;SDS011;34921;52.320;16.142;2022-12-07T16:24:07;57.67;;;33.92;;
49109;SDS011;34921;52.320;16.142;2022-12-07T16:26:35;80.45;;;42.75;;
49109;SDS011;34921;52.320;16.142;2022-12-07T16:29:04;83.03;;;35.30;;
49109;SDS011;34921;52.320;16.142;2022-12-07T16:31:32;60.38;;;29.48;;
49109;SDS011;34921;52.320;16.142;2022-12-07T16:34:01;57.73;;;32.08;;
49109;SDS011;34921;52.320;16.142;2022-12-07T16:36:29;33.67;;;17.43;;
49109;SDS011;34921;52.320;16.142;2022-12-07T16:38:58;36.88;;;20.77;;
49109;SDS011;34921;52.320;16.142;2022-12-07T16:41:27;76.77;;;42.27;;
49109;SDS011;34921;52.320;16.142;2022-12-07T16:43:55;52.33;;;23.77;;
49109;SDS011;34921;52.320;16.142;2022-12-07T16:46:23;31.73;;;16.67;;
49109;SDS011;34921;52.320;16.142;2022-12-07T16:48:52;25.70;;;14.83;;
49109;SDS011;34921;52.320;16.142;2022-12-07T16:51:21;32.93;;;17.02;;
49109;SDS011;34921;52.320;16.142;2022-12-07T16:53:51;44.27;;;23.40;;
49109;SDS011;34921;52.320;16.142;2022-12-07T16:56:21;66.57;;;32.00;;
49109;SDS011;34921;52.320;16.142;2022-12-07T16:58:49;80.30;;;37.65;;
49109;SDS011;34921;52.320;16.142;2022-12-07T17:01:20;58.13;;;28.62;;
49109;SDS011;34921;52.320;16.142;2022-12-07T17:03:51;50.23;;;23.92;;
49109;SDS011;34921;52.320;16.142;2022-12-07T17:06:20;40.80;;;19.73;;
49109;SDS011;34921;52.320;16.142;2022-12-07T17:08:50;48.98;;;25.25;;
49109;SDS011;34921;52.320;16.142;2022-12-07T17:13:54;62.50;;;28.60;;
49109;SDS011;34921;52.320;16.142;2022-12-07T17:16:40;90.53;;;39.20;;
49109;SDS011;34921;52.320;16.142;2022-12-07T17:19:14;62.70;;;25.97;;
49109;SDS011;34921;52.320;16.142;2022-12-07T17:21:43;56.35;;;25.85;;
49109;SDS011;34921;52.320;16.142;2022-12-07T17:24:14;40.17;;;21.48;;
49109;SDS011;34921;52.320;16.142;2022-12-07T17:26:43;74.95;;;41.25;;
49109;SDS011;34921;52.320;16.142;2022-12-07T17:29:13;45.87;;;24.23;;
49109;SDS011;34921;52.320;16.142;2022-12-07T17:31:43;29.33;;;12.53;;